ASN logo
Last updated: 21 October 2019
Status:Schlussbericht
Datum:Donnerstag 10 November 2016
Zeit:12:42
Flugzeugtyp:Silhouette image of generic MD11 model; specific model in this crash may look slightly different
McDonnell Douglas MD-11F
Fluggesellschaft:Lufthansa Cargo
Kennzeichen: D-ALCM
Werknummer: 48805/645
Baujahr: 2000
Betriebsstunden:69139
Anzahl Zyklen der Zelle:12835
Triebwerk: 3 General Electric CF6-80C2D1F
Besatzung:Todesopfer: 0 / Insassen: 2
Fluggäste:Todesopfer: 0 / Insassen: 0
Gesamt:Todesopfer: 0 / Insassen: 2
Sachschaden: schwer beschädigt
Konsequenzen: Repaired
Unfallort:Buenos Aires/Ezeiza-Ministro Pistarini Airport, BA (EZE) (   Argentinien)
Flugphase: Landung (LDG)
Betriebsart:Frachtflug
Flug von:Curitiba-Afonso Pena International Airport, PR (CWB/SBCT), Brasilien
Flug nach:Buenos Aires/Ezeiza-Ministro Pistarini Airport, BA (EZE/SAEZ), Argentinien
Flugnummer:LH8273
Unfallbericht:
A McDonnell Douglas MD-11F aircraft, D-ALCM, sustained damage at Buenos Aires/Ezeiza-Ministro Pistarini Airport, Argentina after the losing one of the nose landing gear tyres. The aircraft operated flight LH8273 from Curitiba, Brazil and landed on runway 29 at Buenos Aires/Ezeiza at 12:42 hours local time.
The Argentine accident investigation board stated the aircraft experienced an apparent loss of the left hand nose landing gear tyre, which then struck the central ventral fuselage, causing considerable damage.

Probable Cause:

Conclusions of the analysis
In a commercial cargo aviation flight, during the landing run, when the nose gear was resting on the runway, the complete detachment of the left wheel of the nose landing gear occurred due to the combination of the following factors:
- Lack of safety mechanism separator lock.
- Inadequate supervision and quality control on the Dakar stopover.

Accident investigation:
cover
Investigating agency: JIAAC Argentina
Status: Investigation completed
Duration: 2 years
Accident number: 515760/2016
Download report: Final report

Informationsquelle:
» JIAAC

METAR Weather report:
15:00 UTC / 12:00 local time:
SAEZ 101500Z 29015KT CAVOK 27/07 Q1008

16:00 UTC / 13:00 local time:
SAEZ 101600Z 34013KT 280V020 CAVOK 29/05 Q1007


Sicherheitsempfehlungen

JIAAC issued 1 Safety Recommendation

Show all...

Fotos

Add your photo of this accident or aircraft

Video, social media

Map
This map shows the airport of departure and the intended destination of the flight. The line between the airports does not display the exact flight path.
Distance from Curitiba-Afonso Pena International Airport, PR to Buenos Aires/Ezeiza-Ministro Pistarini Airport, BA as the crow flies is 1364 km (852 miles).

This information is not presented as the Flight Safety Foundation or the Aviation Safety Network’s opinion as to the cause of the accident. It is preliminary and is based on the facts as they are known at this time.
languages: languages

Share